sensor_id;sensor_type;location;lat;lon;timestamp;pressure;altitude;pressure_sealevel;temperature;humidity
49843;BME280;55559;48.898;9.184;2022-08-19T00:01:57;97943.53;;;20.33;100.00
49843;BME280;55559;48.898;9.184;2022-08-19T00:04:28;97946.84;;;20.35;100.00
49843;BME280;55559;48.898;9.184;2022-08-19T00:06:57;97950.38;;;20.36;100.00
49843;BME280;55559;48.898;9.184;2022-08-19T00:09:25;97952.41;;;20.47;100.00
49843;BME280;55559;48.898;9.184;2022-08-19T00:11:54;97947.88;;;20.41;100.00
49843;BME280;55559;48.898;9.184;2022-08-19T00:14:23;97949.53;;;20.35;100.00
49843;BME280;55559;48.898;9.184;2022-08-19T00:16:51;97946.84;;;20.35;100.00
49843;BME280;55559;48.898;9.184;2022-08-19T00:19:20;97950.63;;;20.28;100.00
49843;BME280;55559;48.898;9.184;2022-08-19T00:21:49;97952.91;;;20.31;100.00
49843;BME280;55559;48.898;9.184;2022-08-19T00:24:17;97961.63;;;20.26;100.00
49843;BME280;55559;48.898;9.184;2022-08-19T00:26:44;97952.69;;;20.25;100.00
49843;BME280;55559;48.898;9.184;2022-08-19T00:29:14;97946.84;;;20.35;100.00
49843;BME280;55559;48.898;9.184;2022-08-19T00:31:42;97948.13;;;20.26;100.00
49843;BME280;55559;48.898;9.184;2022-08-19T00:34:10;97954.16;;;20.21;100.00
49843;BME280;55559;48.898;9.184;2022-08-19T00:36:38;97939.84;;;20.21;100.00
49843;BME280;55559;48.898;9.184;2022-08-19T00:39:08;97939.84;;;20.21;100.00
49843;BME280;55559;48.898;9.184;2022-08-19T00:41:35;97929.66;;;20.16;100.00
49843;BME280;55559;48.898;9.184;2022-08-19T00:44:05;97917.63;;;20.19;100.00
49843;BME280;55559;48.898;9.184;2022-08-19T00:46:34;97902.25;;;20.19;100.00
49843;BME280;55559;48.898;9.184;2022-08-19T00:49:07;97904.16;;;20.12;100.00
49843;BME280;55559;48.898;9.184;2022-08-19T00:51:37;97915.34;;;20.16;100.00
49843;BME280;55559;48.898;9.184;2022-08-19T00:54:04;97919.47;;;20.18;100.00
49843;BME280;55559;48.898;9.184;2022-08-19T00:56:33;97922.81;;;20.20;100.00
49843;BME280;55559;48.898;9.184;2022-08-19T00:59:02;97931.72;;;20.28;100.00
49843;BME280;55559;48.898;9.184;2022-08-19T01:01:34;97928.22;;;20.20;100.00
49843;BME280;55559;48.898;9.184;2022-08-19T01:04:02;97934.44;;;20.21;100.00
49843;BME280;55559;48.898;9.184;2022-08-19T01:06:30;97937.75;;;20.16;100.00
49843;BME280;55559;48.898;9.184;2022-08-19T01:08:59;97934.63;;;20.19;100.00
49843;BME280;55559;48.898;9.184;2022-08-19T01:11:27;97945.22;;;20.21;100.00
49843;BME280;55559;48.898;9.184;2022-08-19T01:13:56;97944.63;;;20.12;100.00
49843;BME280;55559;48.898;9.184;2022-08-19T01:16:25;97948.34;;;20.18;100.00
49843;BME280;55559;48.898;9.184;2022-08-19T01:18:54;97941.53;;;20.09;100.00
49843;BME280;55559;48.898;9.184;2022-08-19T01:21:27;97937.97;;;20.08;100.00
49843;BME280;55559;48.898;9.184;2022-08-19T01:23:59;97933.84;;;20.12;100.00
49843;BME280;55559;48.898;9.184;2022-08-19T01:26:27;97935.09;;;20.03;100.00
49843;BME280;55559;48.898;9.184;2022-08-19T01:28:56;97933.00;;;19.98;100.00
49843;BME280;55559;48.898;9.184;2022-08-19T01:31:26;97944.63;;;20.05;100.00
49843;BME280;55559;48.898;9.184;2022-08-19T01:33:57;97933.84;;;19.99;100.00
49843;BME280;55559;48.898;9.184;2022-08-19T01:36:27;97931.16;;;19.99;100.00
49843;BME280;55559;48.898;9.184;2022-08-19T01:38:55;97929.06;;;19.94;100.00
49843;BME280;55559;48.898;9.184;2022-08-19T01:41:25;97930.31;;;19.98;100.00
49843;BME280;55559;48.898;9.184;2022-08-19T01:43:54;97925.97;;;19.97;100.00
49843;BME280;55559;48.898;9.184;2022-08-19T01:46:22;97922.22;;;19.92;100.00
49843;BME280;55559;48.898;9.184;2022-08-19T01:48:49;97927.41;;;19.93;100.00
49843;BME280;55559;48.898;9.184;2022-08-19T01:51:17;97926.78;;;19.91;100.00
49843;BME280;55559;48.898;9.184;2022-08-19T01:53:48;97917.06;;;19.90;100.00
49843;BME280;55559;48.898;9.184;2022-08-19T01:56:16;97921.00;;;19.87;100.00
49843;BME280;55559;48.898;9.184;2022-08-19T01:58:49;97917.47;;;19.87;100.00
49843;BME280;55559;48.898;9.184;2022-08-19T02:01:17;97918.09;;;19.89;100.00
49843;BME280;55559;48.898;9.184;2022-08-19T02:03:45;97920.78;;;19.89;100.00
49843;BME280;55559;48.898;9.184;2022-08-19T02:06:13;97923.69;;;19.87;100.00
49843;BME280;55559;48.898;9.184;2022-08-19T02:08:42;97923.28;;;19.84;100.00
49843;BME280;55559;48.898;9.184;2022-08-19T02:11:19;97936.78;;;19.84;100.00
49843;BME280;55559;48.898;9.184;2022-08-19T02:13:48;97942.16;;;19.84;100.00
49843;BME280;55559;48.898;9.184;2022-08-19T02:16:16;97942.16;;;19.91;100.00
49843;BME280;55559;48.898;9.184;2022-08-19T02:18:44;97931.38;;;19.84;100.00
49843;BME280;55559;48.898;9.184;2022-08-19T02:21:14;97921.81;;;19.75;100.00
49843;BME280;55559;48.898;9.184;2022-08-19T02:23:41;97921.41;;;19.78;100.00
49843;BME280;55559;48.898;9.184;2022-08-19T02:26:09;97920.59;;;19.77;100.00
49843;BME280;55559;48.898;9.184;2022-08-19T02:28:38;97928.88;;;19.69;100.00
49843;BME280;55559;48.898;9.184;2022-08-19T02:31:11;97936.75;;;19.70;100.00
49843;BME280;55559;48.898;9.184;2022-08-19T02:33:40;97929.06;;;19.67;100.00
49843;BME280;55559;48.898;9.184;2022-08-19T02:36:10;97933.63;;;19.67;100.00
49843;BME280;55559;48.898;9.184;2022-08-19T02:38:38;97935.53;;;19.60;100.00
49843;BME280;55559;48.898;9.184;2022-08-19T02:41:07;97941.13;;;19.58;100.00
49843;BME280;55559;48.898;9.184;2022-08-19T02:43:35;97935.28;;;19.61;100.00
49843;BME280;55559;48.898;9.184;2022-08-19T02:46:13;97934.66;;;19.59;100.00
49843;BME280;55559;48.898;9.184;2022-08-19T02:48:41;97925.75;;;19.59;100.00
49843;BME280;55559;48.898;9.184;2022-08-19T02:51:15;97930.53;;;19.57;100.00
49843;BME280;55559;48.898;9.184;2022-08-19T02:53:43;97933.03;;;19.58;100.00
49843;BME280;55559;48.898;9.184;2022-08-19T02:56:11;97931.75;;;19.61;100.00
49843;BME280;55559;48.898;9.184;2022-08-19T02:58:38;97923.47;;;19.56;100.00
49843;BME280;55559;48.898;9.184;2022-08-19T03:01:06;97920.16;;;19.54;100.00
49843;BME280;55559;48.898;9.184;2022-08-19T03:03:35;97923.69;;;19.54;100.00
49843;BME280;55559;48.898;9.184;2022-08-19T03:06:05;97915.16;;;19.44;100.00
49843;BME280;55559;48.898;9.184;2022-08-19T03:08:33;97917.66;;;19.39;100.00
49843;BME280;55559;48.898;9.184;2022-08-19T03:11:00;97918.28;;;19.34;100.00
49843;BME280;55559;48.898;9.184;2022-08-19T03:13:28;97916.00;;;19.38;100.00
49843;BME280;55559;48.898;9.184;2022-08-19T03:15:55;97923.03;;;19.25;100.00
49843;BME280;55559;48.898;9.184;2022-08-19T03:18:23;97922.81;;;19.20;100.00
49843;BME280;55559;48.898;9.184;2022-08-19T03:20:52;97919.09;;;19.21;100.00
49843;BME280;55559;48.898;9.184;2022-08-19T03:23:20;97927.78;;;19.17;100.00
49843;BME280;55559;48.898;9.184;2022-08-19T03:25:50;97937.53;;;19.11;100.00
49843;BME280;55559;48.898;9.184;2022-08-19T03:28:17;97943.75;;;19.18;100.00
49843;BME280;55559;48.898;9.184;2022-08-19T03:30:56;97941.66;;;19.07;100.00
49843;BME280;55559;48.898;9.184;2022-08-19T03:33:25;97942.50;;;19.01;100.00
49843;BME280;55559;48.898;9.184;2022-08-19T03:36:06;97938.34;;;18.98;100.00
49843;BME280;55559;48.898;9.184;2022-08-19T03:38:35;97928.78;;;18.89;100.00
49843;BME280;55559;48.898;9.184;2022-08-19T03:41:04;97928.78;;;18.89;100.00
49843;BME280;55559;48.898;9.184;2022-08-19T03:43:35;97934.78;;;18.91;100.00
49843;BME280;55559;48.898;9.184;2022-08-19T03:46:04;97938.09;;;18.86;100.00
49843;BME280;55559;48.898;9.184;2022-08-19T03:48:33;97934.56;;;18.86;100.00
49843;BME280;55559;48.898;9.184;2022-08-19T03:51:01;97944.53;;;18.92;100.00
49843;BME280;55559;48.898;9.184;2022-08-19T03:53:31;97936.00;;;18.88;100.00
49843;BME280;55559;48.898;9.184;2022-08-19T03:55:59;97936.00;;;18.88;100.00
49843;BME280;55559;48.898;9.184;2022-08-19T03:58:29;97927.94;;;18.88;100.00
49843;BME280;55559;48.898;9.184;2022-08-19T04:00:57;97932.31;;;18.89;100.00
49843;BME280;55559;48.898;9.184;2022-08-19T04:03:25;97932.50;;;18.88;100.00
49843;BME280;55559;48.898;9.184;2022-08-19T04:05:53;97941.59;;;18.87;100.00
49843;BME280;55559;48.898;9.184;2022-08-19T04:08:21;97935.59;;;18.85;100.00
49843;BME280;55559;48.898;9.184;2022-08-19T04:10:49;97936.81;;;18.82;100.00
49843;BME280;55559;48.898;9.184;2022-08-19T04:13:18;97938.28;;;18.85;100.00
49843;BME280;55559;48.898;9.184;2022-08-19T04:15:46;97936.00;;;18.88;100.00
49843;BME280;55559;48.898;9.184;2022-08-19T04:18:13;97935.22;;;18.94;100.00
49843;BME280;55559;48.898;9.184;2022-08-19T04:20:43;97948.06;;;18.92;100.00
49843;BME280;55559;48.898;9.184;2022-08-19T04:23:11;97939.34;;;18.90;100.00
49843;BME280;55559;48.898;9.184;2022-08-19T04:25:40;97939.75;;;18.87;100.00
49843;BME280;55559;48.898;9.184;2022-08-19T04:28:12;97936.00;;;18.88;100.00
49843;BME280;55559;48.898;9.184;2022-08-19T04:30:41;97942.88;;;18.91;100.00
49843;BME280;55559;48.898;9.184;2022-08-19T04:33:09;97937.91;;;18.94;100.00
49843;BME280;55559;48.898;9.184;2022-08-19T04:35:38;97934.59;;;18.92;100.00
49843;BME280;55559;48.898;9.184;2022-08-19T04:38:06;97921.56;;;19.03;100.00
49843;BME280;55559;48.898;9.184;2022-08-19T04:40:39;97933.75;;;18.99;100.00
49843;BME280;55559;48.898;9.184;2022-08-19T04:43:26;97926.31;;;18.94;100.00
49843;BME280;55559;48.898;9.184;2022-08-19T04:45:54;97938.09;;;18.93;100.00
49843;BME280;55559;48.898;9.184;2022-08-19T04:48:22;97944.94;;;18.95;100.00
49843;BME280;55559;48.898;9.184;2022-08-19T04:50:52;97942.69;;;18.99;100.00
49843;BME280;55559;48.898;9.184;2022-08-19T04:53:24;97936.47;;;18.99;100.00
49843;BME280;55559;48.898;9.184;2022-08-19T04:55:55;97950.75;;;18.92;100.00
49843;BME280;55559;48.898;9.184;2022-08-19T04:58:25;97956.16;;;18.99;100.00
49843;BME280;55559;48.898;9.184;2022-08-19T05:00:53;97956.16;;;18.99;100.00
49843;BME280;55559;48.898;9.184;2022-08-19T05:03:21;97952.84;;;19.04;100.00
49843;BME280;55559;48.898;9.184;2022-08-19T05:05:48;97956.78;;;19.01;100.00
49843;BME280;55559;48.898;9.184;2022-08-19T05:08:18;97964.88;;;19.01;100.00
49843;BME280;55559;48.898;9.184;2022-08-19T05:10:48;97953.91;;;19.03;100.00
49843;BME280;55559;48.898;9.184;2022-08-19T05:13:18;97955.13;;;19.07;100.00
49843;BME280;55559;48.898;9.184;2022-08-19T05:15:54;97966.31;;;19.04;100.00
49843;BME280;55559;48.898;9.184;2022-08-19T05:18:23;97971.69;;;19.04;100.00
49843;BME280;55559;48.898;9.184;2022-08-19T05:21:09;97971.53;;;19.12;100.00
49843;BME280;55559;48.898;9.184;2022-08-19T05:23:54;97982.94;;;19.14;100.00
49843;BME280;55559;48.898;9.184;2022-08-19T05:26:21;97982.53;;;19.17;100.00
49843;BME280;55559;48.898;9.184;2022-08-19T05:28:49;97985.63;;;19.21;100.00
49843;BME280;55559;48.898;9.184;2022-08-19T05:31:18;97993.53;;;19.22;100.00
49843;BME280;55559;48.898;9.184;2022-08-19T05:33:46;98002.03;;;19.26;100.00
49843;BME280;55559;48.898;9.184;2022-08-19T05:36:13;98011.75;;;19.20;100.00
49843;BME280;55559;48.898;9.184;2022-08-19T05:38:41;98019.66;;;19.22;100.00
49843;BME280;55559;48.898;9.184;2022-08-19T05:41:09;98024.66;;;19.25;100.00
49843;BME280;55559;48.898;9.184;2022-08-19T05:43:37;98033.78;;;19.30;100.00
49843;BME280;55559;48.898;9.184;2022-08-19T05:46:05;98039.38;;;19.36;100.00
49843;BME280;55559;48.898;9.184;2022-08-19T05:48:35;98044.97;;;19.27;100.00
49843;BME280;55559;48.898;9.184;2022-08-19T05:51:04;98038.53;;;19.22;100.00
49843;BME280;55559;48.898;9.184;2022-08-19T05:53:32;98043.91;;;19.22;100.00
49843;BME280;55559;48.898;9.184;2022-08-19T05:56:04;98038.06;;;19.11;100.00
49843;BME280;55559;48.898;9.184;2022-08-19T05:58:32;98037.44;;;19.09;100.00
49843;BME280;55559;48.898;9.184;2022-08-19T06:01:00;98035.81;;;19.22;100.00
49843;BME280;55559;48.898;9.184;2022-08-19T06:03:30;98036.88;;;19.27;100.00
49843;BME280;55559;48.898;9.184;2022-08-19T06:05:59;98043.13;;;19.35;100.00
49843;BME280;55559;48.898;9.184;2022-08-19T06:08:28;98040.22;;;19.29;100.00
49843;BME280;55559;48.898;9.184;2022-08-19T06:10:56;98042.94;;;19.36;100.00
49843;BME280;55559;48.898;9.184;2022-08-19T06:13:23;98044.53;;;19.24;100.00
49843;BME280;55559;48.898;9.184;2022-08-19T06:15:51;98041.00;;;19.23;100.00
49843;BME280;55559;48.898;9.184;2022-08-19T06:18:19;98047.84;;;19.26;100.00
49843;BME280;55559;48.898;9.184;2022-08-19T06:20:46;98041.00;;;19.23;100.00
49843;BME280;55559;48.898;9.184;2022-08-19T06:23:16;98040.44;;;19.35;100.00
49843;BME280;55559;48.898;9.184;2022-08-19T06:25:44;98042.50;;;19.39;100.00
49843;BME280;55559;48.898;9.184;2022-08-19T06:28:12;98037.75;;;19.35;100.00
49843;BME280;55559;48.898;9.184;2022-08-19T06:30:39;98033.59;;;19.45;100.00
49843;BME280;55559;48.898;9.184;2022-08-19T06:33:07;98035.69;;;19.43;100.00
49843;BME280;55559;48.898;9.184;2022-08-19T06:35:38;98031.31;;;19.49;100.00
49843;BME280;55559;48.898;9.184;2022-08-19T06:38:06;98033.81;;;19.44;100.00
49843;BME280;55559;48.898;9.184;2022-08-19T06:40:36;98035.09;;;19.55;100.00
49843;BME280;55559;48.898;9.184;2022-08-19T06:43:04;98033.00;;;19.43;100.00
49843;BME280;55559;48.898;9.184;2022-08-19T06:45:31;98044.63;;;19.50;100.00
49843;BME280;55559;48.898;9.184;2022-08-19T06:48:00;98035.91;;;19.55;100.00
49843;BME280;55559;48.898;9.184;2022-08-19T06:50:27;98047.13;;;19.59;100.00
49843;BME280;55559;48.898;9.184;2022-08-19T06:52:55;98035.50;;;19.58;100.00
49843;BME280;55559;48.898;9.184;2022-08-19T06:55:22;98040.72;;;19.80;100.00
49843;BME280;55559;48.898;9.184;2022-08-19T06:57:51;98038.47;;;19.90;100.00
49843;BME280;55559;48.898;9.184;2022-08-19T07:00:19;98041.78;;;19.92;100.00
49843;BME280;55559;48.898;9.184;2022-08-19T07:02:46;98036.19;;;19.94;100.00
49843;BME280;55559;48.898;9.184;2022-08-19T07:05:14;98042.19;;;19.82;100.00
49843;BME280;55559;48.898;9.184;2022-08-19T07:07:43;98045.94;;;19.88;100.00
49843;BME280;55559;48.898;9.184;2022-08-19T07:10:10;98038.03;;;20.06;100.00
49843;BME280;55559;48.898;9.184;2022-08-19T07:12:38;98044.69;;;20.31;100.00
49843;BME280;55559;48.898;9.184;2022-08-19T07:15:09;98054.88;;;19.95;100.00
49843;BME280;55559;48.898;9.184;2022-08-19T07:17:37;98044.28;;;19.80;100.00
49843;BME280;55559;48.898;9.184;2022-08-19T07:20:06;98053.41;;;19.93;100.00
49843;BME280;55559;48.898;9.184;2022-08-19T07:22:34;98051.34;;;19.95;100.00
49843;BME280;55559;48.898;9.184;2022-08-19T07:25:02;98052.59;;;19.99;100.00
49843;BME280;55559;48.898;9.184;2022-08-19T07:27:30;98064.22;;;19.93;100.00
49843;BME280;55559;48.898;9.184;2022-08-19T07:29:57;98059.41;;;19.88;100.00
49843;BME280;55559;48.898;9.184;2022-08-19T07:32:27;98056.31;;;19.78;100.00
49843;BME280;55559;48.898;9.184;2022-08-19T07:34:55;98052.56;;;19.79;100.00
49843;BME280;55559;48.898;9.184;2022-08-19T07:37:23;98058.56;;;19.74;100.00
49843;BME280;55559;48.898;9.184;2022-08-19T07:39:52;98056.50;;;19.83;100.00
49843;BME280;55559;48.898;9.184;2022-08-19T07:42:20;98065.88;;;19.80;100.00
49843;BME280;55559;48.898;9.184;2022-08-19T07:44:47;98059.00;;;19.78;100.00
49843;BME280;55559;48.898;9.184;2022-08-19T07:47:15;98065.00;;;19.80;100.00
49843;BME280;55559;48.898;9.184;2022-08-19T07:49:44;98069.16;;;19.76;100.00
49843;BME280;55559;48.898;9.184;2022-08-19T07:52:12;98069.19;;;19.89;100.00
49843;BME280;55559;48.898;9.184;2022-08-19T07:54:40;98070.59;;;19.72;100.00
49843;BME280;55559;48.898;9.184;2022-08-19T07:57:08;98069.94;;;19.69;100.00
49843;BME280;55559;48.898;9.184;2022-08-19T07:59:36;98068.97;;;19.84;100.00
49843;BME280;55559;48.898;9.184;2022-08-19T08:02:04;98066.69;;;19.94;100.00
49843;BME280;55559;48.898;9.184;2022-08-19T08:04:32;98064.63;;;19.96;100.00
49843;BME280;55559;48.898;9.184;2022-08-19T08:07:18;98057.13;;;19.92;100.00
49843;BME280;55559;48.898;9.184;2022-08-19T08:10:04;98062.13;;;19.95;100.00
49843;BME280;55559;48.898;9.184;2022-08-19T08:12:36;98070.22;;;20.01;100.00
49843;BME280;55559;48.898;9.184;2022-08-19T08:15:09;98067.53;;;20.01;100.00
49843;BME280;55559;48.898;9.184;2022-08-19T08:17:37;98083.09;;;19.99;100.00
49843;BME280;55559;48.898;9.184;2022-08-19T08:20:06;98081.88;;;20.02;100.00
49843;BME280;55559;48.898;9.184;2022-08-19T08:22:35;98084.13;;;19.98;100.00
49843;BME280;55559;48.898;9.184;2022-08-19T08:25:22;98093.91;;;20.06;100.00
49843;BME280;55559;48.898;9.184;2022-08-19T08:27:49;98090.78;;;19.96;100.00
49843;BME280;55559;48.898;9.184;2022-08-19T08:30:20;98086.22;;;19.96;100.00
49843;BME280;55559;48.898;9.184;2022-08-19T08:32:48;98085.19;;;20.04;100.00
49843;BME280;55559;48.898;9.184;2022-08-19T08:35:18;98079.78;;;19.97;100.00
49843;BME280;55559;48.898;9.184;2022-08-19T08:37:49;98075.22;;;20.18;100.00
49843;BME280;55559;48.898;9.184;2022-08-19T08:40:21;98084.13;;;20.18;100.00
49843;BME280;55559;48.898;9.184;2022-08-19T08:42:55;98087.91;;;20.24;100.00
49843;BME280;55559;48.898;9.184;2022-08-19T08:45:28;98086.22;;;20.16;100.00
49843;BME280;55559;48.898;9.184;2022-08-19T08:48:00;98083.13;;;20.26;100.00
49843;BME280;55559;48.898;9.184;2022-08-19T08:50:33;98083.31;;;20.31;100.00
49843;BME280;55559;48.898;9.184;2022-08-19T08:53:06;98083.72;;;20.41;100.00
49843;BME280;55559;48.898;9.184;2022-08-19T08:55:35;98077.28;;;20.49;100.00
49843;BME280;55559;48.898;9.184;2022-08-19T08:58:04;98090.13;;;20.60;100.00
49843;BME280;55559;48.898;9.184;2022-08-19T09:00:36;98071.03;;;20.75;100.00
49843;BME280;55559;48.898;9.184;2022-08-19T09:03:06;98072.25;;;20.86;100.00
49843;BME280;55559;48.898;9.184;2022-08-19T09:05:42;98078.84;;;21.04;100.00
49843;BME280;55559;48.898;9.184;2022-08-19T09:08:20;98078.22;;;21.08;100.00
49843;BME280;55559;48.898;9.184;2022-08-19T09:10:53;98079.28;;;20.94;100.00
49843;BME280;55559;48.898;9.184;2022-08-19T09:13:27;98080.22;;;21.19;100.00
49843;BME280;55559;48.898;9.184;2022-08-19T09:16:02;98080.28;;;21.06;100.00
49843;BME280;55559;48.898;9.184;2022-08-19T09:18:39;98078.53;;;21.32;100.00
49843;BME280;55559;48.898;9.184;2022-08-19T09:21:07;98076.00;;;21.37;100.00
49843;BME280;55559;48.898;9.184;2022-08-19T09:23:37;98083.03;;;21.51;100.00
49843;BME280;55559;48.898;9.184;2022-08-19T09:26:07;98082.19;;;21.51;100.00
49843;BME280;55559;48.898;9.184;2022-08-19T09:28:36;98095.34;;;21.47;100.00
49843;BME280;55559;48.898;9.184;2022-08-19T09:31:04;98085.09;;;21.56;100.00
49843;BME280;55559;48.898;9.184;2022-08-19T09:33:31;98089.31;;;21.39;100.00
49843;BME280;55559;48.898;9.184;2022-08-19T09:36:04;98090.16;;;21.32;100.00
49843;BME280;55559;48.898;9.184;2022-08-19T09:38:33;98094.28;;;21.48;100.00
49843;BME280;55559;48.898;9.184;2022-08-19T09:41:06;98089.50;;;21.50;100.00
49843;BME280;55559;48.898;9.184;2022-08-19T09:43:34;98096.34;;;21.46;100.00
49843;BME280;55559;48.898;9.184;2022-08-19T09:46:03;98090.50;;;21.56;100.00
49843;BME280;55559;48.898;9.184;2022-08-19T09:48:32;98092.34;;;21.62;100.00
49843;BME280;55559;48.898;9.184;2022-08-19T09:51:04;98087.31;;;21.66;100.00
49843;BME280;55559;48.898;9.184;2022-08-19T09:53:33;98089.53;;;21.82;100.00
49843;BME280;55559;48.898;9.184;2022-08-19T09:56:01;98088.31;;;21.71;100.00
49843;BME280;55559;48.898;9.184;2022-08-19T09:58:31;98098.94;;;21.73;100.00
49843;BME280;55559;48.898;9.184;2022-08-19T10:01:00;98093.81;;;21.58;100.00
49843;BME280;55559;48.898;9.184;2022-08-19T10:03:29;98096.34;;;21.53;100.00
49843;BME280;55559;48.898;9.184;2022-08-19T10:05:58;98095.88;;;21.63;100.00
49843;BME280;55559;48.898;9.184;2022-08-19T10:08:28;98095.22;;;21.67;100.00
49843;BME280;55559;48.898;9.184;2022-08-19T10:10:57;98096.28;;;21.60;100.00
49843;BME280;55559;48.898;9.184;2022-08-19T10:13:26;98087.53;;;21.64;100.00
49843;BME280;55559;48.898;9.184;2022-08-19T10:16:02;98093.38;;;21.61;100.00
49843;BME280;55559;48.898;9.184;2022-08-19T10:18:30;98089.38;;;21.70;100.00
49843;BME280;55559;48.898;9.184;2022-08-19T10:21:05;98097.13;;;21.60;100.00
49843;BME280;55559;48.898;9.184;2022-08-19T10:23:35;98090.22;;;21.71;100.00
49843;BME280;55559;48.898;9.184;2022-08-19T10:26:03;98086.09;;;21.62;100.00
49843;BME280;55559;48.898;9.184;2022-08-19T10:28:32;98089.59;;;21.69;100.00
49843;BME280;55559;48.898;9.184;2022-08-19T10:31:09;98081.16;;;21.84;100.00
49843;BME280;55559;48.898;9.184;2022-08-19T10:33:37;98078.41;;;21.90;100.00
49843;BME280;55559;48.898;9.184;2022-08-19T10:36:08;98081.06;;;21.97;100.00
49843;BME280;55559;48.898;9.184;2022-08-19T10:38:36;98082.94;;;21.97;100.00
49843;BME280;55559;48.898;9.184;2022-08-19T10:41:07;98075.31;;;21.87;100.00
49843;BME280;55559;48.898;9.184;2022-08-19T10:43:35;98067.25;;;22.05;100.00
49843;BME280;55559;48.898;9.184;2022-08-19T10:46:04;98063.34;;;22.26;100.00
49843;BME280;55559;48.898;9.184;2022-08-19T10:48:33;98063.16;;;22.28;98.81
49843;BME280;55559;48.898;9.184;2022-08-19T10:51:02;98060.88;;;22.50;94.94
49843;BME280;55559;48.898;9.184;2022-08-19T10:53:46;98068.88;;;22.63;94.11
49843;BME280;55559;48.898;9.184;2022-08-19T10:56:14;98071.59;;;22.82;91.63
49843;BME280;55559;48.898;9.184;2022-08-19T10:58:59;98066.31;;;22.87;89.41
49843;BME280;55559;48.898;9.184;2022-08-19T11:01:29;98062.63;;;23.00;88.50
49843;BME280;55559;48.898;9.184;2022-08-19T11:04:00;98067.84;;;23.20;87.69
49843;BME280;55559;48.898;9.184;2022-08-19T11:06:28;98061.78;;;23.36;85.71
49843;BME280;55559;48.898;9.184;2022-08-19T11:08:56;98063.56;;;23.61;84.57
49843;BME280;55559;48.898;9.184;2022-08-19T11:11:24;98065.66;;;23.89;83.51
49843;BME280;55559;48.898;9.184;2022-08-19T11:13:51;98064.13;;;23.82;83.36
49843;BME280;55559;48.898;9.184;2022-08-19T11:16:20;98067.66;;;23.64;83.36
49843;BME280;55559;48.898;9.184;2022-08-19T11:18:50;98063.50;;;23.49;84.06
49843;BME280;55559;48.898;9.184;2022-08-19T11:21:22;98062.84;;;23.35;85.49
49843;BME280;55559;48.898;9.184;2022-08-19T11:23:53;98062.72;;;23.12;87.65
49843;BME280;55559;48.898;9.184;2022-08-19T11:26:21;98063.47;;;23.00;88.56
49843;BME280;55559;48.898;9.184;2022-08-19T11:28:49;98063.53;;;22.94;88.56
49843;BME280;55559;48.898;9.184;2022-08-19T11:31:21;98059.03;;;23.06;87.75
49843;BME280;55559;48.898;9.184;2022-08-19T11:33:49;98056.84;;;23.15;87.09
49843;BME280;55559;48.898;9.184;2022-08-19T11:36:21;98073.84;;;23.03;87.94
49843;BME280;55559;48.898;9.184;2022-08-19T11:38:49;98065.06;;;23.08;87.70
49843;BME280;55559;48.898;9.184;2022-08-19T11:41:18;98072.88;;;23.16;86.83
49843;BME280;55559;48.898;9.184;2022-08-19T11:43:46;98062.25;;;22.96;86.82
49843;BME280;55559;48.898;9.184;2022-08-19T11:46:15;98062.25;;;22.96;88.61
49843;BME280;55559;48.898;9.184;2022-08-19T11:48:43;98052.63;;;23.19;86.53
49843;BME280;55559;48.898;9.184;2022-08-19T11:51:13;98060.91;;;23.06;87.36
49843;BME280;55559;48.898;9.184;2022-08-19T11:53:42;98056.31;;;23.06;86.67
49843;BME280;55559;48.898;9.184;2022-08-19T11:56:10;98068.13;;;23.12;86.84
49843;BME280;55559;48.898;9.184;2022-08-19T11:58:39;98061.66;;;23.13;86.56
49843;BME280;55559;48.898;9.184;2022-08-19T12:01:08;98066.78;;;23.21;86.42
49843;BME280;55559;48.898;9.184;2022-08-19T12:03:37;98062.25;;;23.33;83.92
49843;BME280;55559;48.898;9.184;2022-08-19T12:06:06;98057.00;;;23.50;82.91
49843;BME280;55559;48.898;9.184;2022-08-19T12:08:34;98060.31;;;23.52;81.61
49843;BME280;55559;48.898;9.184;2022-08-19T12:11:03;98058.44;;;23.53;78.95
49843;BME280;55559;48.898;9.184;2022-08-19T12:13:34;98053.16;;;23.58;78.77
49843;BME280;55559;48.898;9.184;2022-08-19T12:16:07;98048.84;;;23.81;76.98
49843;BME280;55559;48.898;9.184;2022-08-19T12:18:35;98047.75;;;24.12;75.21
49843;BME280;55559;48.898;9.184;2022-08-19T12:21:02;98052.13;;;24.13;74.49
49843;BME280;55559;48.898;9.184;2022-08-19T12:23:30;98043.63;;;24.33;73.30
49843;BME280;55559;48.898;9.184;2022-08-19T12:25:57;98043.97;;;24.25;74.61
49843;BME280;55559;48.898;9.184;2022-08-19T12:28:26;98038.88;;;24.17;73.89
49843;BME280;55559;48.898;9.184;2022-08-19T12:30:56;98044.78;;;24.02;74.79
49843;BME280;55559;48.898;9.184;2022-08-19T12:33:24;98043.69;;;23.91;75.92
49843;BME280;55559;48.898;9.184;2022-08-19T12:35:54;98050.56;;;23.93;74.51
49843;BME280;55559;48.898;9.184;2022-08-19T12:38:21;98049.59;;;23.88;74.26
49843;BME280;55559;48.898;9.184;2022-08-19T12:40:50;98052.84;;;23.78;74.51
49843;BME280;55559;48.898;9.184;2022-08-19T12:43:18;98049.63;;;23.69;74.63
49843;BME280;55559;48.898;9.184;2022-08-19T12:45:48;98052.59;;;23.68;75.02
49843;BME280;55559;48.898;9.184;2022-08-19T12:48:15;98054.81;;;23.71;75.62
49843;BME280;55559;48.898;9.184;2022-08-19T12:50:44;98053.50;;;23.62;74.79
49843;BME280;55559;48.898;9.184;2022-08-19T12:53:12;98053.00;;;23.53;75.50
49843;BME280;55559;48.898;9.184;2022-08-19T12:55:40;98049.78;;;23.44;73.05
49843;BME280;55559;48.898;9.184;2022-08-19T12:58:08;98055.31;;;23.37;74.21
49843;BME280;55559;48.898;9.184;2022-08-19T13:00:36;98052.91;;;23.29;74.31
49843;BME280;55559;48.898;9.184;2022-08-19T13:03:05;98060.22;;;23.29;73.11
49843;BME280;55559;48.898;9.184;2022-08-19T13:05:33;98066.00;;;23.32;72.61